Time;durP1;ratioP1;P1;durP2;ratioP2;P2;SDS_P1;SDS_P2;PMS_P1;PMS_P2;Temp;Humidity;BMP_temperature;BMP_pressure;BME280_temperature;BME280_humidity;BME280_pressure;Samples;Min_cycle;Max_cycle;Signal;HPM_P1;HPM_P2
2024/01/26 05:30:20;;;;;;;4.90;4.40;;;9.10;99.90;;;;;;5550269;23;20468;-64
2024/01/26 05:32:47;;;;;;;6.05;4.75;;;9.10;99.90;;;;;;4965028;28;20495;-68
2024/01/26 05:35:14;;;;;;;5.18;4.68;;;9.10;99.90;;;;;;4969971;28;20535;-66
2024/01/26 05:37:40;;;;;;;4.43;4.03;;;9.10;99.90;;;;;;4976548;28;20422;-65
2024/01/26 05:40:08;;;;;;;4.85;4.00;;;9.10;99.90;;;;;;4974453;28;20416;-67
2024/01/26 05:42:35;;;;;;;4.15;3.75;;;9.10;99.90;;;;;;4966865;28;20435;-66
2024/01/26 05:45:04;;;;;;;3.10;2.80;;;9.10;99.90;;;;;;4967358;28;20435;-66
2024/01/26 05:47:32;;;;;;;3.20;2.63;;;9.10;99.90;;;;;;4967443;28;20443;-67
2024/01/26 05:49:59;;;;;;;4.40;2.53;;;9.20;99.90;;;;;;4962084;28;20801;-65
2024/01/26 05:52:25;;;;;;;3.00;2.70;;;9.30;99.90;;;;;;4966459;28;20422;-66
2024/01/26 05:54:52;;;;;;;2.20;2.00;;;9.40;99.90;;;;;;4963885;28;20445;-69
2024/01/26 05:57:19;;;;;;;2.38;1.63;;;9.50;99.90;;;;;;4968366;28;20811;-68
2024/01/26 05:59:45;;;;;;;2.13;1.48;;;9.50;99.90;;;;;;4963233;28;20439;-69
2024/01/26 06:02:12;;;;;;;2.90;1.60;;;9.60;99.90;;;;;;4967731;28;20440;-65
2024/01/26 06:04:40;;;;;;;2.90;1.90;;;9.60;99.90;;;;;;4964800;28;20416;-64
2024/01/26 06:07:07;;;;;;;2.10;1.90;;;9.60;99.90;;;;;;4965397;28;20499;-64
2024/01/26 06:09:34;;;;;;;2.00;1.60;;;9.70;99.90;;;;;;4967226;28;20423;-66
2024/01/26 06:12:01;;;;;;;3.00;2.20;;;9.60;99.90;;;;;;4968065;28;20408;-67
2024/01/26 06:14:27;;;;;;;2.20;1.80;;;9.60;99.90;;;;;;4967122;28;20511;-65
2024/01/26 06:16:54;;;;;;;1.70;1.50;;;9.60;99.90;;;;;;4967464;28;20416;-65
2024/01/26 06:19:21;;;;;;;2.70;1.70;;;9.60;99.90;;;;;;4964893;28;20426;-65
2024/01/26 06:21:49;;;;;;;2.00;1.80;;;9.60;99.90;;;;;;4967136;28;20435;-65
2024/01/26 06:24:15;;;;;;;2.30;2.10;;;9.60;99.90;;;;;;4966958;28;20415;-65
2024/01/26 06:26:42;;;;;;;2.38;2.00;;;9.60;99.90;;;;;;4960333;28;20442;-66
2024/01/26 06:29:09;;;;;;;2.60;2.25;;;9.60;99.90;;;;;;4966239;28;20673;-67
2024/01/26 06:31:35;;;;;;;2.42;2.17;;;9.50;99.90;;;;;;4971701;28;20496;-64
2024/01/26 06:34:02;;;;;;;2.90;2.50;;;9.50;99.90;;;;;;4966806;28;20842;-65
2024/01/26 06:36:29;;;;;;;2.63;2.42;;;9.50;99.90;;;;;;4967109;28;20551;-65
2024/01/26 06:38:57;;;;;;;3.10;2.50;;;9.50;99.90;;;;;;4965110;28;20424;-65
2024/01/26 06:41:24;;;;;;;3.05;2.30;;;9.50;99.90;;;;;;4967783;28;20452;-65
2024/01/26 06:43:51;;;;;;;3.30;2.30;;;9.40;99.90;;;;;;4965121;28;20448;-66
2024/01/26 06:46:22;;;;;;;2.72;2.40;;;9.40;99.90;;;;;;4974734;28;20426;-65
2024/01/26 06:48:49;;;;;;;3.17;2.40;;;9.40;99.90;;;;;;4970282;28;20423;-65
2024/01/26 06:51:15;;;;;;;2.80;2.60;;;9.40;99.90;;;;;;4976718;28;20431;-65
2024/01/26 06:53:42;;;;;;;3.38;2.53;;;9.40;99.90;;;;;;4979060;28;20426;-65
2024/01/26 06:56:10;;;;;;;2.50;2.20;;;9.40;99.90;;;;;;4984132;28;20430;-65
2024/01/26 06:58:37;;;;;;;2.60;2.40;;;9.50;99.90;;;;;;4967374;28;20455;-65
2024/01/26 07:01:04;;;;;;;2.60;2.40;;;9.50;99.90;;;;;;4994419;22;20443;-72
2024/01/26 07:03:31;;;;;;;2.38;2.13;;;9.50;99.90;;;;;;4987621;28;20811;-71
2024/01/26 07:05:57;;;;;;;2.50;2.30;;;9.50;99.90;;;;;;5001213;28;20803;-72
2024/01/26 07:08:24;;;;;;;2.65;2.42;;;9.60;99.90;;;;;;4999014;28;20578;-72
2024/01/26 07:10:51;;;;;;;2.50;2.30;;;9.60;99.90;;;;;;5007722;28;20416;-72
2024/01/26 07:13:19;;;;;;;2.50;2.30;;;9.60;99.90;;;;;;4998498;28;20973;-74
2024/01/26 07:15:46;;;;;;;3.75;2.65;;;9.60;99.90;;;;;;5001044;28;20806;-72
2024/01/26 07:18:12;;;;;;;2.85;2.60;;;9.60;99.90;;;;;;4998043;28;20426;-71
2024/01/26 07:20:39;;;;;;;4.05;2.88;;;9.60;99.90;;;;;;4997131;28;20913;-72
2024/01/26 07:23:06;;;;;;;3.60;3.20;;;9.60;99.90;;;;;;5003035;28;20798;-72
2024/01/26 07:25:32;;;;;;;3.70;3.40;;;9.60;99.90;;;;;;4994027;28;20919;-71
2024/01/26 07:27:59;;;;;;;4.80;3.70;;;9.50;99.90;;;;;;4991601;28;20426;-72
2024/01/26 07:30:27;;;;;;;5.43;3.75;;;9.50;99.90;;;;;;4998124;28;20417;-71
2024/01/26 07:32:54;;;;;;;4.30;3.90;;;9.50;99.90;;;;;;4999276;28;20416;-70
2024/01/26 07:35:21;;;;;;;4.70;4.10;;;9.50;99.90;;;;;;5001678;28;20440;-71
2024/01/26 07:37:47;;;;;;;4.65;3.92;;;9.40;99.90;;;;;;5005416;28;20443;-72
2024/01/26 07:40:14;;;;;;;5.47;4.10;;;9.40;99.90;;;;;;5001084;28;20924;-70
2024/01/26 07:42:41;;;;;;;4.25;3.60;;;9.50;99.90;;;;;;5003225;28;20463;-72
2024/01/26 07:45:08;;;;;;;4.90;4.25;;;9.50;99.90;;;;;;4993782;28;20418;-72
2024/01/26 07:47:36;;;;;;;5.30;4.05;;;9.50;99.90;;;;;;5002186;28;20507;-72
2024/01/26 07:50:04;;;;;;;5.80;3.90;;;9.50;99.90;;;;;;5005970;28;20424;-74
2024/01/26 07:52:31;;;;;;;3.95;3.53;;;9.50;99.90;;;;;;4996220;28;20915;-73
2024/01/26 07:54:57;;;;;;;4.72;4.22;;;9.50;99.90;;;;;;4993009;28;20426;-73
2024/01/26 07:57:25;;;;;;;5.80;4.40;;;9.50;99.90;;;;;;4993764;28;20426;-73
2024/01/26 07:59:52;;;;;;;8.20;4.77;;;9.60;99.90;;;;;;4996705;28;20471;-72
2024/01/26 08:02:19;;;;;;;5.07;4.30;;;9.50;99.90;;;;;;5003958;28;20465;-72
2024/01/26 08:04:47;;;;;;;5.47;4.22;;;9.60;99.90;;;;;;5001647;28;20495;-71
2024/01/26 08:07:15;;;;;;;4.40;4.00;;;9.60;99.90;;;;;;4993083;28;20414;-71
2024/01/26 08:09:44;;;;;;;6.57;3.72;;;9.60;99.90;;;;;;4992010;28;20433;-71
2024/01/26 08:12:10;;;;;;;5.20;3.80;;;9.60;99.90;;;;;;4989562;28;20429;-72
2024/01/26 08:14:37;;;;;;;4.00;3.50;;;9.60;99.90;;;;;;4992955;28;20430;-70
2024/01/26 08:17:04;;;;;;;5.30;3.70;;;9.70;99.90;;;;;;4996446;28;20507;-72
2024/01/26 08:19:32;;;;;;;3.88;3.47;;;9.70;99.90;;;;;;4996454;28;20425;-71
2024/01/26 08:22:00;;;;;;;4.88;3.30;;;9.70;99.90;;;;;;5000534;28;20799;-72
2024/01/26 08:24:27;;;;;;;3.90;3.20;;;9.70;99.90;;;;;;5004549;28;20480;-72
2024/01/26 08:26:54;;;;;;;4.60;3.15;;;9.80;99.90;;;;;;5002462;28;20849;-70
2024/01/26 08:29:24;;;;;;;4.40;3.08;;;9.80;99.90;;;;;;4999596;28;20429;-70
2024/01/26 08:31:51;;;;;;;4.07;3.40;;;9.80;99.90;;;;;;4985771;28;20459;-71
2024/01/26 08:34:18;;;;;;;5.38;2.72;;;9.80;99.90;;;;;;4985655;28;20427;-71
2024/01/26 08:36:45;;;;;;;4.00;2.80;;;9.80;99.90;;;;;;4991476;28;20790;-71
2024/01/26 08:39:13;;;;;;;3.83;2.90;;;9.80;99.90;;;;;;4985426;28;20418;-71
2024/01/26 08:41:40;;;;;;;4.53;2.70;;;9.90;99.90;;;;;;4988124;28;20422;-71
2024/01/26 08:44:07;;;;;;;4.25;3.10;;;9.90;99.90;;;;;;4987420;28;20963;-72
2024/01/26 08:46:34;;;;;;;4.10;2.80;;;9.90;99.90;;;;;;4988752;28;20503;-71
2024/01/26 08:49:00;;;;;;;4.03;3.08;;;9.90;99.90;;;;;;4989027;28;20418;-73
2024/01/26 08:51:29;;;;;;;4.38;2.60;;;9.90;99.90;;;;;;4998417;28;20656;-72
2024/01/26 08:53:55;;;;;;;3.28;2.70;;;9.90;99.90;;;;;;4990991;28;20422;-75
2024/01/26 08:56:24;;;;;;;3.73;2.87;;;10.00;99.90;;;;;;4992358;28;20446;-73
2024/01/26 08:58:50;;;;;;;3.35;2.67;;;10.00;99.90;;;;;;4984696;28;20780;-73
2024/01/26 09:01:19;;;;;;;2.72;2.50;;;10.00;99.90;;;;;;4993754;28;20565;-73
2024/01/26 09:03:46;;;;;;;3.35;2.47;;;10.00;99.90;;;;;;4983737;28;20430;-75
2024/01/26 09:06:13;;;;;;;2.10;1.80;;;10.10;99.90;;;;;;4997744;28;20413;-73
2024/01/26 09:08:40;;;;;;;3.15;2.20;;;10.00;99.90;;;;;;4993267;28;20440;-73
2024/01/26 09:11:07;;;;;;;5.90;2.35;;;10.10;99.90;;;;;;4993563;28;20433;-74
2024/01/26 09:13:35;;;;;;;4.40;2.22;;;10.10;99.90;;;;;;4992403;28;20898;-74
2024/01/26 09:16:02;;;;;;;2.70;1.90;;;10.10;99.90;;;;;;4991366;28;20431;-74
2024/01/26 09:18:28;;;;;;;2.72;1.80;;;10.10;99.90;;;;;;4991764;28;20526;-74
2024/01/26 09:20:55;;;;;;;4.00;2.03;;;10.10;99.90;;;;;;4991552;28;20418;-75
2024/01/26 09:23:22;;;;;;;3.08;2.30;;;10.10;99.90;;;;;;4991161;28;20426;-75
2024/01/26 09:25:48;;;;;;;4.75;2.67;;;10.20;99.90;;;;;;4991338;28;20418;-73
2024/01/26 09:28:15;;;;;;;2.95;2.40;;;10.20;99.90;;;;;;4991781;28;20422;-75
2024/01/26 09:30:43;;;;;;;2.50;1.70;;;10.20;99.90;;;;;;4998145;28;20639;-74
2024/01/26 09:33:10;;;;;;;3.40;2.00;;;10.20;99.90;;;;;;4990925;28;20448;-74
2024/01/26 09:35:37;;;;;;;2.25;1.52;;;10.20;99.90;;;;;;4990935;28;20422;-75
2024/01/26 09:38:04;;;;;;;2.17;1.70;;;10.30;99.90;;;;;;4995687;28;20473;-75
2024/01/26 09:40:31;;;;;;;2.00;1.42;;;10.30;99.90;;;;;;4991935;28;20414;-75
2024/01/26 09:42:57;;;;;;;2.35;1.50;;;10.30;99.90;;;;;;4990518;28;20954;-75
2024/01/26 09:45:24;;;;;;;2.70;1.30;;;10.40;99.90;;;;;;4990415;28;20426;-73
2024/01/26 09:47:52;;;;;;;2.22;1.40;;;10.50;99.90;;;;;;4992636;28;20418;-74
2024/01/26 09:50:20;;;;;;;1.90;1.30;;;10.50;99.90;;;;;;4990526;28;20426;-74
2024/01/26 09:52:47;;;;;;;2.60;1.70;;;10.70;99.90;;;;;;4984684;28;20422;-73
2024/01/26 09:55:16;;;;;;;2.45;1.30;;;10.80;99.90;;;;;;4990241;28;20430;-74
2024/01/26 09:57:45;;;;;;;2.10;1.20;;;10.80;99.90;;;;;;4998941;28;20419;-75
2024/01/26 10:00:12;;;;;;;2.38;1.45;;;10.90;99.90;;;;;;4990777;28;20445;-73
2024/01/26 10:02:39;;;;;;;1.75;1.30;;;10.90;99.90;;;;;;4993451;28;20781;-75
2024/01/26 10:05:08;;;;;;;3.05;1.52;;;11.00;99.90;;;;;;4992874;28;20414;-72
2024/01/26 10:07:35;;;;;;;2.40;1.60;;;11.00;99.90;;;;;;4995325;28;20761;-74
2024/01/26 10:10:03;;;;;;;4.72;1.67;;;11.00;99.90;;;;;;4996958;28;20454;-74
2024/01/26 10:12:30;;;;;;;1.60;1.30;;;11.10;99.90;;;;;;4989522;28;20803;-74
2024/01/26 10:15:04;;;;;;;4.40;1.50;;;11.10;99.90;;;;;;4990538;28;20778;-74
2024/01/26 10:17:31;;;;;;;1.88;1.20;;;11.10;99.90;;;;;;4989553;28;20430;-73
2024/01/26 10:20:09;;;;;;;1.92;1.25;;;11.10;99.90;;;;;;4991134;28;20427;-73
2024/01/26 10:22:36;;;;;;;2.55;1.30;;;11.10;99.90;;;;;;4992285;28;20434;-73
2024/01/26 10:25:04;;;;;;;1.98;1.20;;;11.10;99.90;;;;;;4991104;28;20690;-74
2024/01/26 10:27:30;;;;;;;2.60;1.40;;;11.10;99.90;;;;;;4990420;28;20875;-73
2024/01/26 10:29:57;;;;;;;2.00;1.50;;;11.10;99.90;;;;;;4990315;28;20533;-74
2024/01/26 10:32:29;;;;;;;1.88;1.67;;;11.10;99.90;;;;;;4989408;28;20805;-74
2024/01/26 10:34:58;;;;;;;2.03;1.60;;;11.20;99.90;;;;;;4989765;28;20465;-73
2024/01/26 10:37:28;;;;;;;2.50;1.63;;;11.20;99.90;;;;;;4989249;28;20469;-74
2024/01/26 10:39:55;;;;;;;3.50;1.98;;;11.20;99.90;;;;;;4983426;28;20453;-74
2024/01/26 10:42:23;;;;;;;2.47;2.20;;;11.10;99.90;;;;;;4992024;28;20511;-75
2024/01/26 10:44:50;;;;;;;2.38;2.17;;;11.20;99.90;;;;;;4989788;28;20458;-74
2024/01/26 10:47:18;;;;;;;2.40;2.20;;;11.20;99.90;;;;;;4989889;28;20928;-74
2024/01/26 10:49:48;;;;;;;2.40;2.20;;;11.20;99.90;;;;;;4989572;28;20505;-72
2024/01/26 10:52:17;;;;;;;2.90;2.60;;;11.30;99.90;;;;;;4990210;28;20426;-73
2024/01/26 10:54:46;;;;;;;2.80;2.10;;;11.30;99.90;;;;;;4988966;28;20418;-73
2024/01/26 10:57:12;;;;;;;2.65;2.20;;;11.30;99.90;;;;;;4990168;28;20426;-73
2024/01/26 10:59:40;;;;;;;2.63;1.90;;;11.30;99.90;;;;;;4989666;28;20425;-75
2024/01/26 11:02:11;;;;;;;2.10;1.75;;;11.40;99.90;;;;;;4988094;28;20454;-74
2024/01/26 11:04:42;;;;;;;3.38;1.80;;;11.40;99.90;;;;;;4988755;28;20422;-75
2024/01/26 11:07:09;;;;;;;3.58;2.20;;;11.40;99.90;;;;;;4986194;28;20410;-75
2024/01/26 11:09:38;;;;;;;2.73;2.20;;;11.30;99.90;;;;;;4990212;28;20972;-74
2024/01/26 11:12:19;;;;;;;2.60;1.83;;;11.30;99.90;;;;;;4994598;28;20506;-73
2024/01/26 11:14:47;;;;;;;2.80;2.10;;;11.20;99.90;;;;;;4989139;28;20414;-74
2024/01/26 11:17:14;;;;;;;3.00;2.13;;;11.20;99.90;;;;;;4996401;28;20787;-74
2024/01/26 11:19:49;;;;;;;3.05;2.30;;;11.10;99.90;;;;;;4990140;28;20420;-73
2024/01/26 11:22:16;;;;;;;2.90;2.10;;;10.90;99.90;;;;;;4989057;28;20419;-75
2024/01/26 11:24:44;;;;;;;3.35;2.50;;;10.80;99.90;;;;;;4988682;28;20485;-74
2024/01/26 11:27:12;;;;;;;3.60;2.50;;;10.60;99.90;;;;;;4989028;28;20496;-73
2024/01/26 11:29:40;;;;;;;2.40;1.58;;;10.40;99.90;;;;;;4989358;28;20410;-74
2024/01/26 11:32:16;;;;;;;4.03;2.20;;;10.20;99.90;;;;;;4988435;28;20518;-75
2024/01/26 11:34:43;;;;;;;3.57;2.10;;;10.00;99.90;;;;;;4988811;28;20418;-74
2024/01/26 11:37:12;;;;;;;2.38;1.30;;;9.80;99.90;;;;;;4988658;28;20426;-74
2024/01/26 11:39:39;;;;;;;3.72;2.05;;;9.70;99.90;;;;;;4989175;28;20947;-75
2024/01/26 11:42:09;;;;;;;4.43;2.07;;;9.60;99.90;;;;;;4985943;28;20508;-74
2024/01/26 11:44:41;;;;;;;2.55;1.42;;;9.50;99.90;;;;;;4986058;28;20514;-75
2024/01/26 11:47:08;;;;;;;5.45;1.50;;;9.40;99.90;;;;;;4986444;28;20414;-74
2024/01/26 11:49:36;;;;;;;3.08;1.63;;;9.40;99.90;;;;;;4988913;28;20963;-73
2024/01/26 11:52:03;;;;;;;4.40;1.77;;;9.50;99.90;;;;;;4988671;28;20418;-74
2024/01/26 11:54:31;;;;;;;4.30;1.77;;;9.60;99.90;;;;;;4988327;28;20418;-75
2024/01/26 11:56:58;;;;;;;5.83;1.87;;;9.80;99.90;;;;;;4989022;28;20414;-74
2024/01/26 11:59:27;;;;;;;4.68;1.35;;;10.10;99.90;;;;;;4988556;28;20429;-74
2024/01/26 12:01:56;;;;;;;4.20;1.77;;;10.20;99.90;;;;;;4988549;28;20415;-73
2024/01/26 12:04:24;;;;;;;2.80;1.30;;;10.30;99.90;;;;;;4987105;28;20995;-73
2024/01/26 12:06:52;;;;;;;5.35;1.80;;;10.50;99.90;;;;;;4988704;28;20422;-74
2024/01/26 12:09:19;;;;;;;4.88;2.20;;;10.60;99.90;;;;;;4986654;28;20473;-73
2024/01/26 12:11:46;;;;;;;5.47;1.90;;;10.60;99.90;;;;;;4988130;28;20512;-74
2024/01/26 12:14:13;;;;;;;4.28;1.85;;;10.70;99.90;;;;;;4988014;28;20462;-73
2024/01/26 12:16:40;;;;;;;3.70;1.50;;;10.70;99.90;;;;;;4988547;28;20418;-74
2024/01/26 12:19:08;;;;;;;5.10;1.80;;;10.60;99.90;;;;;;4988391;28;20418;-75
2024/01/26 12:21:36;;;;;;;3.28;1.40;;;10.60;99.90;;;;;;4986549;28;20438;-75
2024/01/26 12:24:09;;;;;;;2.70;1.42;;;10.70;99.90;;;;;;4991115;28;20445;-75
2024/01/26 12:26:36;;;;;;;3.40;1.55;;;10.70;99.90;;;;;;4991935;28;20422;-74
2024/01/26 12:29:03;;;;;;;3.60;1.90;;;10.80;99.90;;;;;;4989765;28;20993;-74
2024/01/26 12:31:31;;;;;;;4.07;1.80;;;10.80;99.90;;;;;;4994101;28;20418;-74
2024/01/26 12:33:59;;;;;;;4.20;1.60;;;10.80;99.90;;;;;;4985967;28;20442;-74
2024/01/26 12:36:31;;;;;;;3.30;1.50;;;10.70;99.90;;;;;;4988106;28;20828;-78
2024/01/26 12:38:58;;;;;;;2.92;1.60;;;10.60;99.90;;;;;;4989686;28;20442;-76
2024/01/26 12:41:25;;;;;;;3.58;1.30;;;10.90;99.90;;;;;;4987064;28;20433;-76
2024/01/26 12:43:52;;;;;;;3.65;1.00;;;11.20;99.90;;;;;;4990901;28;20438;-77
2024/01/26 12:46:19;;;;;;;3.40;1.30;;;11.00;99.90;;;;;;4991773;28;20472;-76
2024/01/26 12:48:47;;;;;;;3.75;1.40;;;11.00;99.90;;;;;;4992193;28;20419;-76
2024/01/26 12:51:14;;;;;;;4.20;1.60;;;11.60;99.90;;;;;;4992642;28;20451;-77
2024/01/26 12:53:42;;;;;;;4.30;1.53;;;12.30;99.90;;;;;;4992595;28;20904;-76
2024/01/26 12:56:08;;;;;;;4.32;1.10;;;12.70;97.50;;;;;;4991181;28;20534;-77
2024/01/26 12:58:35;;;;;;;3.00;0.90;;;12.80;91.80;;;;;;4993491;28;20414;-78
2024/01/26 13:01:02;;;;;;;3.10;1.40;;;12.90;92.30;;;;;;4998515;28;20418;-75
2024/01/26 13:03:29;;;;;;;3.70;1.50;;;13.20;97.10;;;;;;5004929;28;20815;-78
2024/01/26 13:05:55;;;;;;;2.97;1.15;;;13.60;84.50;;;;;;5007859;28;20418;-77
2024/01/26 13:08:22;;;;;;;2.75;1.17;;;13.60;74.90;;;;;;4992200;28;20422;-77
2024/01/26 13:10:50;;;;;;;2.58;0.77;;;13.80;80.60;;;;;;4993083;28;20583;-75
2024/01/26 13:13:17;;;;;;;3.40;1.50;;;13.90;71.90;;;;;;4989756;28;20411;-76
2024/01/26 13:15:44;;;;;;;3.30;1.20;;;14.00;69.90;;;;;;4988365;28;20427;-78
2024/01/26 13:18:13;;;;;;;4.20;1.20;;;14.00;68.50;;;;;;4990918;28;20799;-76
2024/01/26 13:20:39;;;;;;;2.40;1.30;;;13.90;71.70;;;;;;4991369;28;20480;-76
2024/01/26 13:23:06;;;;;;;4.10;1.10;;;13.90;70.70;;;;;;4999031;28;20416;-76
2024/01/26 13:25:33;;;;;;;3.83;1.50;;;13.90;70.20;;;;;;4993939;28;20418;-75
2024/01/26 13:28:01;;;;;;;3.15;1.10;;;13.80;66.00;;;;;;4998989;28;20419;-74
2024/01/26 13:30:28;;;;;;;3.08;1.10;;;13.50;62.40;;;;;;4989491;28;20521;-73
2024/01/26 13:32:54;;;;;;;2.00;1.00;;;13.20;62.70;;;;;;4988711;28;20437;-72
2024/01/26 13:35:23;;;;;;;4.45;1.75;;;12.80;62.40;;;;;;4988999;28;20901;-73
2024/01/26 13:37:49;;;;;;;4.47;1.60;;;12.20;64.00;;;;;;4994130;28;20429;-72
2024/01/26 13:40:17;;;;;;;3.75;1.83;;;11.80;75.70;;;;;;4990854;28;20426;-74
2024/01/26 13:42:43;;;;;;;3.30;1.30;;;11.40;70.60;;;;;;4991166;28;20414;-73
2024/01/26 13:45:12;;;;;;;5.35;1.70;;;11.10;79.00;;;;;;4989495;28;21117;-71
2024/01/26 13:47:39;;;;;;;4.30;1.80;;;10.90;77.70;;;;;;4989925;28;20865;-71
2024/01/26 13:50:08;;;;;;;5.05;1.60;;;10.70;85.10;;;;;;4991154;28;20530;-71
2024/01/26 13:52:35;;;;;;;3.90;1.80;;;10.50;90.70;;;;;;5018831;22;20461;-65
2024/01/26 13:55:02;;;;;;;5.85;1.60;;;10.40;90.90;;;;;;4996137;28;20414;-66
2024/01/26 13:57:29;;;;;;;3.80;1.60;;;10.30;94.00;;;;;;4994524;28;20596;-65
2024/01/26 13:59:57;;;;;;;4.70;1.80;;;10.20;93.40;;;;;;4987469;28;20426;-64
2024/01/26 14:02:26;;;;;;;3.70;1.30;;;10.20;94.30;;;;;;4991057;28;20842;-66
2024/01/26 14:04:53;;;;;;;4.93;1.52;;;10.00;95.80;;;;;;4989356;28;20435;-69
2024/01/26 14:07:20;;;;;;;6.55;2.00;;;9.80;94.80;;;;;;4988074;28;20465;-69
2024/01/26 14:09:48;;;;;;;6.13;2.17;;;9.90;97.30;;;;;;4999004;28;20906;-67
2024/01/26 14:12:15;;;;;;;4.10;1.50;;;10.00;97.60;;;;;;4997671;28;20433;-67
2024/01/26 14:14:42;;;;;;;3.70;1.40;;;9.90;93.50;;;;;;4986455;28;20423;-67
2024/01/26 14:17:09;;;;;;;4.03;1.40;;;9.80;94.90;;;;;;4986261;28;20880;-69
2024/01/26 14:19:37;;;;;;;4.00;1.48;;;9.60;97.30;;;;;;4988246;28;20955;-64
2024/01/26 14:22:05;;;;;;;5.10;1.67;;;9.50;98.00;;;;;;4985160;28;20521;-67
2024/01/26 14:24:31;;;;;;;5.77;1.70;;;9.50;96.40;;;;;;4983566;28;20927;-64
2024/01/26 14:26:58;;;;;;;2.10;1.20;;;9.50;95.80;;;;;;4983808;28;20549;-66
2024/01/26 14:29:25;;;;;;;5.60;1.50;;;9.50;94.90;;;;;;4982258;28;20430;-69
2024/01/26 14:31:53;;;;;;;5.20;1.88;;;9.50;95.70;;;;;;4983239;28;20435;-66
2024/01/26 14:34:20;;;;;;;4.30;1.58;;;9.60;97.30;;;;;;4984938;28;20939;-65
2024/01/26 14:36:48;;;;;;;5.13;1.60;;;9.70;94.50;;;;;;4984480;28;20512;-67
2024/01/26 14:39:15;;;;;;;4.63;1.60;;;9.90;93.50;;;;;;4982686;28;20446;-65
2024/01/26 14:41:41;;;;;;;5.05;1.70;;;10.00;93.90;;;;;;4984057;28;20912;-66
2024/01/26 14:44:08;;;;;;;4.43;1.50;;;10.20;91.50;;;;;;4982964;28;20575;-65
2024/01/26 14:46:35;;;;;;;5.78;1.73;;;10.30;90.20;;;;;;4982296;28;20430;-66
2024/01/26 14:49:03;;;;;;;4.83;1.70;;;10.40;87.00;;;;;;4983506;28;20926;-67
2024/01/26 14:51:30;;;;;;;4.20;1.38;;;10.40;79.90;;;;;;4985369;28;20426;-68
2024/01/26 14:53:59;;;;;;;6.03;1.80;;;10.30;83.50;;;;;;4984498;28;20434;-66
2024/01/26 14:56:26;;;;;;;6.43;2.40;;;10.20;85.30;;;;;;4983142;28;20604;-65
2024/01/26 14:58:52;;;;;;;5.57;2.30;;;10.10;83.50;;;;;;4983344;28;20483;-67
2024/01/26 15:01:19;;;;;;;6.20;2.00;;;10.00;87.90;;;;;;4987142;28;20561;-67
2024/01/26 15:03:46;;;;;;;5.03;1.80;;;9.90;87.70;;;;;;4985362;28;20808;-66
2024/01/26 15:06:13;;;;;;;4.82;1.80;;;9.80;80.60;;;;;;4985477;28;20421;-67
2024/01/26 15:08:40;;;;;;;5.65;2.28;;;9.70;85.80;;;;;;4983812;28;20426;-67
2024/01/26 15:11:08;;;;;;;4.85;1.90;;;9.60;90.60;;;;;;4985023;28;20434;-66
2024/01/26 15:13:35;;;;;;;3.55;1.60;;;9.50;92.00;;;;;;4983260;28;20438;-66
2024/01/26 15:16:02;;;;;;;3.90;1.70;;;9.30;92.10;;;;;;4982957;28;20428;-67
2024/01/26 15:18:28;;;;;;;5.05;1.50;;;9.20;92.40;;;;;;4982774;28;20423;-67
2024/01/26 15:20:55;;;;;;;6.00;2.30;;;9.00;93.60;;;;;;4982629;28;20422;-66
2024/01/26 15:23:22;;;;;;;5.70;1.83;;;9.00;93.90;;;;;;4982006;28;20865;-66
2024/01/26 15:25:49;;;;;;;5.60;1.80;;;9.00;95.20;;;;;;4981976;28;20787;-66
2024/01/26 15:28:19;;;;;;;7.63;2.00;;;8.90;96.40;;;;;;4982744;28;20418;-67
2024/01/26 15:30:46;;;;;;;6.63;2.03;;;8.80;96.10;;;;;;4984070;28;20461;-67
2024/01/26 15:33:13;;;;;;;5.82;2.30;;;8.70;96.70;;;;;;4982011;28;20421;-67
2024/01/26 15:35:40;;;;;;;5.32;2.40;;;8.70;96.20;;;;;;4981016;28;20490;-67
2024/01/26 15:38:07;;;;;;;7.70;2.80;;;8.70;96.90;;;;;;4983055;28;20426;-67
2024/01/26 15:40:34;;;;;;;9.63;2.33;;;8.70;97.60;;;;;;4984735;28;20960;-67
2024/01/26 15:43:01;;;;;;;5.90;1.95;;;8.70;96.60;;;;;;4984348;28;21277;-67
2024/01/26 15:45:29;;;;;;;7.50;2.33;;;8.80;97.90;;;;;;4986211;28;20522;-67
2024/01/26 15:47:56;;;;;;;6.65;1.67;;;8.80;97.00;;;;;;4983720;28;20450;-67
2024/01/26 15:50:23;;;;;;;7.95;2.30;;;8.80;97.70;;;;;;4984134;28;20441;-66
2024/01/26 15:52:49;;;;;;;5.87;2.00;;;8.70;98.20;;;;;;4981891;28;20414;-66
2024/01/26 15:55:16;;;;;;;5.38;2.10;;;8.60;98.50;;;;;;4981758;28;20682;-67
2024/01/26 15:57:43;;;;;;;5.57;2.10;;;8.60;99.00;;;;;;4985570;28;20429;-67
2024/01/26 16:00:11;;;;;;;5.10;2.17;;;8.50;99.40;;;;;;4987036;28;20453;-69
2024/01/26 16:02:39;;;;;;;7.70;2.30;;;8.40;99.90;;;;;;4986417;28;20483;-66
2024/01/26 16:05:07;;;;;;;6.30;2.50;;;8.30;99.90;;;;;;4985294;28;20442;-67
2024/01/26 16:07:34;;;;;;;8.32;2.40;;;8.20;99.90;;;;;;4985783;28;20436;-68
2024/01/26 16:10:02;;;;;;;8.37;2.20;;;8.20;99.90;;;;;;4986695;28;20877;-68
2024/01/26 16:12:28;;;;;;;4.50;1.80;;;8.10;99.90;;;;;;4987267;28;20437;-69
2024/01/26 16:14:55;;;;;;;7.70;2.20;;;8.00;99.90;;;;;;4987720;28;20425;-77
2024/01/26 16:17:22;;;;;;;4.97;1.90;;;7.90;99.90;;;;;;4987335;28;20808;-71
2024/01/26 16:19:50;;;;;;;7.07;2.50;;;7.90;99.90;;;;;;4987681;28;20432;-69
2024/01/26 16:22:17;;;;;;;8.27;2.40;;;7.90;99.90;;;;;;4987721;28;20915;-69
2024/01/26 16:24:43;;;;;;;6.23;2.00;;;8.00;99.90;;;;;;4984270;28;20430;-68
2024/01/26 16:27:11;;;;;;;6.75;2.60;;;8.00;99.90;;;;;;4985246;28;20441;-68
2024/01/26 16:29:37;;;;;;;6.22;2.10;;;8.00;99.90;;;;;;4986609;28;20963;-67
2024/01/26 16:32:05;;;;;;;7.65;2.25;;;8.00;99.90;;;;;;4986185;28;20449;-68
2024/01/26 16:34:31;;;;;;;6.93;2.22;;;8.10;99.90;;;;;;4986785;28;20414;-68
2024/01/26 16:37:00;;;;;;;8.63;2.10;;;8.10;99.90;;;;;;4986932;28;20414;-68
2024/01/26 16:39:26;;;;;;;6.13;1.92;;;8.10;99.90;;;;;;4986500;28;20497;-69
2024/01/26 16:41:53;;;;;;;6.20;2.40;;;8.00;99.90;;;;;;4987091;28;20733;-68
2024/01/26 16:44:20;;;;;;;5.43;2.08;;;8.00;99.90;;;;;;4985480;28;20513;-68
2024/01/26 16:46:46;;;;;;;7.88;2.78;;;8.00;99.90;;;;;;4985915;28;20418;-68
2024/01/26 16:49:13;;;;;;;7.53;2.40;;;8.00;99.90;;;;;;4985172;28;20418;-68
2024/01/26 16:51:40;;;;;;;5.13;1.73;;;8.00;99.90;;;;;;4986652;28;20419;-68
2024/01/26 16:54:08;;;;;;;8.20;2.20;;;8.00;99.90;;;;;;4988202;28;21330;-68
2024/01/26 16:56:35;;;;;;;7.80;2.60;;;8.00;99.90;;;;;;4990391;28;20430;-68
2024/01/26 16:59:01;;;;;;;6.93;2.47;;;8.00;99.90;;;;;;4994114;28;20425;-68
2024/01/26 17:01:28;;;;;;;7.17;2.10;;;8.00;99.90;;;;;;5009074;28;20700;-68
2024/01/26 17:03:55;;;;;;;10.63;2.55;;;8.00;99.90;;;;;;5000207;28;20414;-68
2024/01/26 17:06:22;;;;;;;5.22;2.10;;;8.00;99.90;;;;;;4999495;28;20437;-68
2024/01/26 17:08:48;;;;;;;7.15;2.30;;;8.00;99.90;;;;;;4999342;28;20451;-68
2024/01/26 17:11:17;;;;;;;4.97;2.38;;;8.00;99.90;;;;;;4991064;28;20937;-68
2024/01/26 17:13:44;;;;;;;8.30;2.90;;;8.00;99.90;;;;;;4990873;28;20445;-68
2024/01/26 17:16:10;;;;;;;5.78;2.60;;;7.90;99.90;;;;;;4988361;28;20790;-68
2024/01/26 17:18:37;;;;;;;5.47;2.30;;;7.90;99.90;;;;;;4997980;28;20426;-67
2024/01/26 17:21:05;;;;;;;6.55;2.33;;;7.80;99.90;;;;;;4992291;28;20421;-68
2024/01/26 17:23:34;;;;;;;6.60;2.70;;;7.70;99.90;;;;;;4991307;28;20436;-68
2024/01/26 17:26:02;;;;;;;6.65;2.78;;;7.70;99.90;;;;;;4989723;28;21434;-68
2024/01/26 17:28:30;;;;;;;7.10;2.83;;;7.70;99.90;;;;;;4989361;28;20426;-76
2024/01/26 17:30:56;;;;;;;8.10;3.10;;;7.70;99.90;;;;;;4988185;28;21013;-70
2024/01/26 17:33:23;;;;;;;7.45;2.90;;;7.60;99.90;;;;;;4988633;28;20438;-70
2024/01/26 17:35:50;;;;;;;7.95;3.05;;;7.60;99.90;;;;;;4991103;28;20432;-70
2024/01/26 17:38:17;;;;;;;6.97;2.05;;;7.60;99.90;;;;;;4990763;28;20441;-69
2024/01/26 17:40:44;;;;;;;9.20;2.70;;;7.60;99.90;;;;;;4989659;28;20480;-69
2024/01/26 17:43:10;;;;;;;7.10;3.40;;;7.50;99.90;;;;;;4990789;28;20426;-69
2024/01/26 17:45:38;;;;;;;7.03;2.80;;;7.50;99.90;;;;;;4989020;28;20438;-69
2024/01/26 17:48:06;;;;;;;5.60;2.40;;;7.50;99.90;;;;;;4990732;28;20418;-70
2024/01/26 17:50:35;;;;;;;6.57;2.25;;;7.40;99.90;;;;;;4990255;28;20502;-69
2024/01/26 17:53:02;;;;;;;6.97;2.30;;;7.50;99.90;;;;;;4994951;28;20465;-69
2024/01/26 17:55:33;;;;;;;6.65;2.50;;;7.50;99.90;;;;;;4996029;28;20425;-70
2024/01/26 17:57:59;;;;;;;6.07;2.40;;;7.50;99.90;;;;;;4989672;28;20480;-69
2024/01/26 18:00:26;;;;;;;5.22;2.58;;;7.50;99.90;;;;;;4997203;28;20417;-70
2024/01/26 18:02:54;;;;;;;7.30;2.50;;;7.50;99.90;;;;;;5008261;28;20413;-69
2024/01/26 18:05:22;;;;;;;7.18;2.20;;;7.50;99.90;;;;;;5007380;28;20431;-69
2024/01/26 18:07:50;;;;;;;6.18;2.70;;;7.50;99.90;;;;;;5004373;28;20442;-70
2024/01/26 18:10:17;;;;;;;5.88;2.90;;;7.50;99.90;;;;;;5009540;28;20424;-69
2024/01/26 18:12:44;;;;;;;5.13;2.63;;;7.50;99.90;;;;;;5016079;28;20431;-70
2024/01/26 18:15:10;;;;;;;6.97;2.88;;;7.50;99.90;;;;;;5009252;28;20473;-68
2024/01/26 18:17:37;;;;;;;7.63;3.03;;;7.40;99.90;;;;;;5005752;28;20550;-69
2024/01/26 18:20:07;;;;;;;6.03;2.80;;;7.50;99.90;;;;;;5001192;28;20429;-70
2024/01/26 18:22:34;;;;;;;8.18;3.30;;;7.50;99.90;;;;;;5001297;28;20424;-69